Time;durP1;ratioP1;P1;durP2;ratioP2;P2;SDS_P1;SDS_P2;PMS_P1;PMS_P2;Temp;Humidity;BMP_temperature;BMP_pressure;BME280_temperature;BME280_humidity;BME280_pressure;Samples;Min_cycle;Max_cycle;Signal;HPM_P1;HPM_P2
2021/07/27 00:00:44;;;;;;;9.30;8.13;;;;;;;20.14;100.00;101328.74;1803383;78;21406;-91
2021/07/27 00:03:12;;;;;;;8.50;7.67;;;;;;;20.17;100.00;101319.66;1777155;78;21515;-90
2021/07/27 00:05:39;;;;;;;11.88;7.40;;;;;;;20.19;100.00;101321.63;1776545;78;21535;-90
2021/07/27 00:08:07;;;;;;;10.72;7.45;;;;;;;20.18;100.00;101323.45;1776331;78;22254;-90
2021/07/27 00:10:37;;;;;;;9.48;7.20;;;;;;;20.18;100.00;101325.28;1776265;78;21575;-92
2021/07/27 00:13:05;;;;;;;9.85;7.08;;;;;;;20.17;100.00;101321.80;1766045;79;21013;-91
2021/07/27 00:15:33;;;;;;;9.45;7.30;;;;;;;20.16;100.00;101319.32;1777203;78;21508;-93
2021/07/27 00:18:00;;;;;;;7.92;6.92;;;;;;;20.11;100.00;101321.63;1776600;78;20996;-90
2021/07/27 00:20:27;;;;;;;9.18;6.78;;;;;;;20.06;100.00;101327.88;1776262;78;21830;-91
2021/07/27 00:22:54;;;;;;;8.35;6.75;;;;;;;20.00;100.00;101329.34;1776529;78;21111;-92
2021/07/27 00:25:21;;;;;;;8.95;6.87;;;;;;;19.98;100.00;101326.86;1776451;78;21024;-92
2021/07/27 00:27:49;;;;;;;10.48;7.75;;;;;;;19.97;100.00;101329.68;1807809;78;20914;-89
2021/07/27 00:30:16;;;;;;;8.10;7.30;;;;;;;19.91;100.00;101328.49;1776769;78;21390;-92
2021/07/27 00:32:45;;;;;;;13.85;7.58;;;;;;;19.92;100.00;101327.52;1775412;78;21765;-89
2021/07/27 00:35:13;;;;;;;9.53;7.28;;;;;;;19.99;100.00;101329.03;1776700;78;21143;-90
2021/07/27 00:37:45;;;;;;;18.12;7.53;;;;;;;20.03;100.00;101326.89;1776432;78;21073;-91
2021/07/27 00:40:15;;;;;;;11.68;7.60;;;;;;;20.07;100.00;101325.57;1807986;78;20978;-92
2021/07/27 00:42:45;;;;;;;10.85;7.70;;;;;;;20.09;100.00;101323.09;1808029;78;21044;-90
2021/07/27 00:45:14;;;;;;;11.08;7.28;;;;;;;20.12;100.00;101323.27;1776455;78;21106;-89
2021/07/27 00:47:42;;;;;;;9.80;7.00;;;;;;;20.12;100.00;101321.94;1776751;78;21001;-91
2021/07/27 00:50:13;;;;;;;12.05;8.00;;;;;;;20.12;100.00;101314.85;1807915;78;21072;-90
2021/07/27 00:52:40;;;;;;;17.75;7.58;;;;;;;20.14;100.00;101312.88;1807772;78;21010;-89
2021/07/27 00:55:09;;;;;;;24.23;8.53;;;;;;;20.17;100.00;101318.34;1776753;78;20977;-92
2021/07/27 00:57:36;;;;;;;7.97;7.17;;;;;;;20.17;100.00;101311.22;1776338;78;21087;-89
2021/07/27 01:00:06;;;;;;;13.62;7.53;;;;;;;20.17;100.00;101309.89;1803422;78;20930;-91
2021/07/27 01:02:33;;;;;;;13.28;6.62;;;;;;;20.15;100.00;101312.38;1777246;78;21076;-90
2021/07/27 01:05:01;;;;;;;8.28;6.33;;;;;;;20.09;100.00;101311.20;1776404;79;21060;-89
2021/07/27 01:07:28;;;;;;;8.08;6.90;;;;;;;20.04;100.00;101313.98;1807988;78;21000;-89
2021/07/27 01:09:56;;;;;;;11.45;7.42;;;;;;;19.99;100.00;101319.78;1777382;78;21108;-88
2021/07/27 01:12:23;;;;;;;11.05;7.33;;;;;;;19.88;100.00;101314.27;1770205;78;21131;-88
2021/07/27 01:14:51;;;;;;;14.20;6.92;;;;;;;19.76;100.00;101320.30;1777277;78;21645;-89
2021/07/27 01:17:23;;;;;;;14.68;7.42;;;;;;;19.67;100.00;101313.33;1808320;78;21461;-91
2021/07/27 01:20:03;;;;;;;9.60;7.15;;;;;;;19.64;100.00;101311.83;1770298;78;21777;-91
2021/07/27 01:44:44;;;;;;;14.55;7.55;;;;;;;19.48;100.00;101309.95;1808660;78;20958;-89
2021/07/27 01:47:21;;;;;;;20.48;7.78;;;;;;;19.46;100.00;101309.28;1770108;78;21061;-91
2021/07/27 01:49:50;;;;;;;42.38;9.70;;;;;;;19.45;100.00;101314.22;1808284;78;21005;-88
2021/07/27 01:52:20;;;;;;;39.65;8.53;;;;;;;19.50;100.00;101311.11;1769457;78;21045;-89
2021/07/27 01:54:52;;;;;;;24.98;7.83;;;;;;;19.58;100.00;101315.62;1804009;78;21004;-92
2021/07/27 01:57:20;;;;;;;8.83;7.37;;;;;;;19.64;100.00;101317.63;1808084;78;21626;-91
2021/07/27 02:00:03;;;;;;;14.20;6.90;;;;;;;19.68;100.00;101320.27;1807937;78;21536;-88
2021/07/27 02:02:33;;;;;;;14.55;7.35;;;;;;;19.65;100.00;101315.32;1777152;78;21107;-89
2021/07/27 02:05:00;;;;;;;11.05;7.45;;;;;;;19.65;100.00;101317.45;1770048;78;21112;-89
2021/07/27 02:07:27;;;;;;;7.75;6.20;;;;;;;19.66;100.00;101317.79;1770093;78;21052;-89
2021/07/27 02:10:01;;;;;;;10.48;6.75;;;;;;;19.58;100.00;101316.94;1770117;78;21053;-91
2021/07/27 02:12:30;;;;;;;13.90;6.67;;;;;;;19.47;100.00;101317.53;1803657;78;21044;-89
2021/07/27 02:15:08;;;;;;;14.43;7.90;;;;;;;19.45;100.00;101319.50;1773161;78;21873;-88
2021/07/27 02:17:36;;;;;;;16.27;7.62;;;;;;;19.50;100.00;101317.23;1803901;78;21075;-89
2021/07/27 02:20:05;;;;;;;11.97;7.45;;;;;;;19.53;100.00;101318.22;1808600;78;21448;-89
2021/07/27 02:22:37;;;;;;;13.28;7.37;;;;;;;19.58;100.00;101324.86;1776961;78;21001;-88
2021/07/27 02:25:06;;;;;;;12.80;7.47;;;;;;;19.60;100.00;101322.39;1808848;78;21524;-89
2021/07/27 02:27:34;;;;;;;13.48;8.05;;;;;;;19.61;100.00;101317.92;1750826;78;21468;-90
2021/07/27 02:30:01;;;;;;;12.88;7.55;;;;;;;19.59;100.00;101319.92;1808673;78;21044;-89
2021/07/27 02:32:30;;;;;;;11.15;7.40;;;;;;;19.58;100.00;101315.62;1770505;78;21005;-89
2021/07/27 02:34:58;;;;;;;8.30;7.40;;;;;;;19.50;100.00;101321.67;1777586;78;20950;-90
2021/07/27 02:37:26;;;;;;;11.22;7.10;;;;;;;19.36;100.00;101321.28;1769878;78;21037;-89
2021/07/27 02:39:53;;;;;;;14.35;7.08;;;;;;;19.21;100.00;101319.69;1770208;79;21306;-89
2021/07/27 02:42:20;;;;;;;12.98;7.03;;;;;;;19.13;100.00;101324.09;1769279;78;21472;-91
2021/07/27 02:44:47;;;;;;;11.05;7.70;;;;;;;19.10;100.00;101323.92;1808526;78;20985;-93
2021/07/27 02:47:16;;;;;;;9.65;6.75;;;;;;;19.08;100.00;101328.02;1769615;78;21425;-91
2021/07/27 02:49:45;;;;;;;10.15;6.97;;;;;;;19.05;100.00;101324.86;1769881;78;21041;-88
2021/07/27 02:52:23;;;;;;;10.95;7.58;;;;;;;19.03;100.00;101320.22;1769156;78;21115;-90
2021/07/27 02:54:44;;;;;;;9.88;7.25;;;;;;;19.01;100.00;101316.92;1775884;78;21041;-89
2021/07/27 02:57:11;;;;;;;7.87;7.05;;;;;;;19.02;100.00;101321.23;1776156;78;21014;-92
2021/07/27 02:59:49;;;;;;;17.87;7.35;;;;;;;18.98;100.00;101321.17;1776277;78;21139;-92
2021/07/27 03:02:22;;;;;;;10.95;7.15;;;;;;;18.93;100.00;101322.95;1776595;79;21524;-93
2021/07/27 03:04:49;;;;;;;12.28;7.83;;;;;;;18.98;100.00;101325.14;1776187;78;21075;-93
2021/07/27 03:07:21;;;;;;;10.48;6.42;;;;;;;18.96;100.00;101323.13;1776200;78;21076;-91
2021/07/27 03:10:49;;;;;;;16.97;7.35;;;;;;;18.95;100.00;101328.91;1776498;78;21068;-91
2021/07/27 03:12:28;;;;;;;10.98;6.78;;;;;;;18.91;100.00;101324.41;1797461;78;20962;-91
2021/07/27 03:15:03;;;;;;;21.12;7.28;;;;;;;18.87;100.00;101326.99;1776358;79;21013;-90
2021/07/27 03:17:30;;;;;;;37.38;8.60;;;;;;;18.88;100.00;101324.70;1773688;78;21094;-91
2021/07/27 03:19:57;;;;;;;19.70;7.37;;;;;;;18.94;100.00;101326.44;1776183;78;21893;-92
2021/07/27 03:22:37;;;;;;;12.37;7.40;;;;;;;19.05;100.00;101330.13;1771815;79;21499;-92
2021/07/27 03:25:41;;;;;;;7.72;6.75;;;;;;;19.14;100.00;101334.49;1797183;78;21033;-92
2021/07/27 03:28:24;;;;;;;7.58;6.83;;;;;;;19.22;100.00;101338.51;1660570;79;21040;-88
2021/07/27 03:31:26;;;;;;;;;;;;;;;;;;;;;
2021/07/27 03:34:13;;;;;;;;;;;;;;;;;;;;;
2021/07/27 03:36:37;;;;;;;11.57;7.22;;;;;;;19.47;100.00;101345.77;1473623;92;21262;-92
2021/07/27 03:39:48;;;;;;;;;;;;;;;;;;;;;
2021/07/27 04:14:52;;;;;;;;;;;;;;;;;;;;;
2021/07/27 04:17:20;;;;;;;12.53;6.87;;;;;;;20.40;100.00;101344.97;1459178;92;21189;-86
2021/07/27 04:19:48;;;;;;;11.78;7.12;;;;;;;20.44;100.00;101351.61;1559312;88;21640;-87
2021/07/27 04:22:16;;;;;;;15.83;8.20;;;;;;;20.48;100.00;101352.92;1590412;88;21611;-88
2021/07/27 04:24:50;;;;;;;8.68;7.00;;;;;;;20.49;100.00;101354.58;1700228;78;21511;-88
2021/07/27 04:27:14;;;;;;;12.93;6.90;;;;;;;20.51;100.00;101351.77;1752162;79;21082;-87
2021/07/27 04:29:44;;;;;;;10.38;7.10;;;;;;;20.55;100.00;101355.75;1775797;79;20986;-87
2021/07/27 04:32:11;;;;;;;10.45;6.65;;;;;;;20.59;100.00;101352.29;1745867;79;21068;-87
2021/07/27 04:34:38;;;;;;;11.88;6.45;;;;;;;20.65;100.00;101352.47;1745520;79;21196;-87
2021/07/27 04:37:06;;;;;;;10.10;7.12;;;;;;;20.74;100.00;101355.16;1745826;79;21033;-87
2021/07/27 04:39:34;;;;;;;18.32;7.35;;;;;;;20.82;100.00;101351.67;1745415;79;21052;-86
2021/07/27 04:42:02;;;;;;;12.53;6.80;;;;;;;20.87;100.00;101352.83;1745713;79;21508;-87
2021/07/27 04:44:29;;;;;;;11.30;7.87;;;;;;;20.93;100.00;101352.67;1758321;79;21071;-86
2021/07/27 04:46:57;;;;;;;9.75;6.90;;;;;;;20.99;100.00;101361.27;1762754;79;21103;-87
2021/07/27 04:49:24;;;;;;;8.95;6.90;;;;;;;21.05;100.00;101359.78;1768977;78;21488;-86
2021/07/27 04:51:51;;;;;;;11.48;6.30;;;;;;;21.08;100.00;101347.03;1758563;79;21033;-87
2021/07/27 04:54:27;;;;;;;15.48;6.92;;;;;;;21.16;100.00;101345.37;1745733;80;21036;-86
2021/07/27 04:56:47;;;;;;;10.00;7.33;;;;;;;21.25;100.00;101349.16;1745860;79;20934;-88
2021/07/27 04:59:16;;;;;;;12.30;7.97;;;;;;;21.35;100.00;101352.12;1775818;79;21515;-87
2021/07/27 05:01:43;;;;;;;13.00;7.45;;;;;;;21.43;100.00;101355.56;1771025;79;21103;-87
2021/07/27 05:04:10;;;;;;;9.30;7.90;;;;;;;21.52;100.00;101343.62;1771269;79;21759;-86
2021/07/27 05:06:38;;;;;;;13.53;8.18;;;;;;;21.62;100.00;101346.13;1771101;79;21072;-86
2021/07/27 05:09:06;;;;;;;13.28;8.08;;;;;;;21.69;100.00;101351.88;1771404;80;21013;-87
2021/07/27 05:11:35;;;;;;;16.85;7.80;;;;;;;21.77;100.00;101346.22;1775979;79;21000;-87
2021/07/27 05:14:02;;;;;;;10.03;8.00;;;;;;;21.85;100.00;101352.82;1770967;79;21037;-88
2021/07/27 05:16:29;;;;;;;13.15;7.87;;;;;;;21.91;100.00;101345.53;1771186;80;21020;-86
2021/07/27 05:19:09;;;;;;;10.82;8.20;;;;;;;22.00;100.00;101351.60;1797251;78;21018;-89
2021/07/27 05:21:40;;;;;;;13.50;8.08;;;;;;;22.08;100.00;101352.89;1799911;79;21003;-90
2021/07/27 05:24:21;;;;;;;;;;;;;;;;;;;;;
2021/07/27 05:26:39;;;;;;;8.85;7.50;;;;;;;22.27;100.00;101347.64;1737365;81;21044;-86
2021/07/27 05:29:07;;;;;;;9.98;7.85;;;;;;;22.36;100.00;101348.41;1746056;80;21564;-88
2021/07/27 05:31:47;;;;;;;10.93;7.37;;;;;;;22.45;100.00;101350.55;1691184;82;21555;-87
2021/07/27 05:34:09;;;;;;;11.20;6.62;;;;;;;22.51;100.00;101347.19;1719919;80;21084;-88
2021/07/27 05:36:39;;;;;;;7.35;6.65;;;;;;;22.58;100.00;101349.45;1763765;79;21162;-89
2021/07/27 05:39:07;;;;;;;8.53;6.97;;;;;;;22.65;100.00;101342.43;1797420;78;21040;-93
2021/07/27 05:41:37;;;;;;;9.23;6.90;;;;;;;22.73;100.00;101338.06;1798169;78;21021;-92
2021/07/27 05:44:05;;;;;;;14.28;7.17;;;;;;;22.79;100.00;101342.16;1774978;79;20998;-88
2021/07/27 05:46:34;;;;;;;12.07;6.40;;;;;;;22.87;100.00;101336.45;1772342;79;21047;-87
2021/07/27 05:49:11;;;;;;;8.10;6.65;;;;;;;22.94;100.00;101340.89;1745249;79;21795;-88
2021/07/27 05:51:36;;;;;;;9.98;6.35;;;;;;;23.03;100.00;101338.16;1766894;79;21060;-89
2021/07/27 05:54:23;;;;;;;26.97;7.97;;;;;;;23.12;100.00;101339.70;1775230;79;21139;-89
2021/07/27 06:08:15;;;;;;;14.00;6.60;;;;;;;23.51;94.90;101340.02;1404447;99;21162;-87
2021/07/27 06:10:48;;;;;;;8.63;6.00;;;;;;;23.60;100.00;101337.55;1549863;88;21170;-89
2021/07/27 06:13:24;;;;;;;11.45;7.03;;;;;;;23.69;87.13;101340.12;1661714;82;22019;-91
2021/07/27 06:15:54;;;;;;;19.73;6.97;;;;;;;23.80;88.98;101342.31;1623718;86;21091;-90
2021/07/27 06:18:54;;;;;;;8.65;6.35;;;;;;;23.89;95.22;101337.22;1656289;84;21756;-90
2021/07/27 06:21:28;;;;;;;10.05;6.50;;;;;;;23.99;97.98;101340.12;1712087;79;20986;-91
2021/07/27 06:24:05;;;;;;;12.58;7.25;;;;;;;24.07;89.12;101334.17;1790114;79;20963;-89
2021/07/27 06:26:41;;;;;;;8.68;6.22;;;;;;;24.17;90.74;101337.86;1697927;83;20954;-87
2021/07/27 06:29:10;;;;;;;6.65;5.95;;;;;;;24.27;94.96;101334.91;1700306;82;21505;-92
2021/07/27 06:32:04;;;;;;;8.70;6.55;;;;;;;24.39;99.16;101332.57;1768079;78;21560;-88
2021/07/27 06:34:32;;;;;;;10.75;6.08;;;;;;;24.48;95.64;101333.25;1775619;78;21044;-84
2021/07/27 06:37:01;;;;;;;9.33;5.92;;;;;;;24.58;96.18;101331.92;1751449;78;21025;-85
2021/07/27 06:39:31;;;;;;;10.50;5.80;;;;;;;24.66;81.29;101330.97;1776371;79;20993;-85
2021/07/27 06:42:06;;;;;;;9.68;5.47;;;;;;;24.75;89.57;101333.53;1775767;78;21048;-87
2021/07/27 06:44:36;;;;;;;6.40;5.75;;;;;;;24.82;83.98;101332.55;1802949;78;21118;-89
2021/07/27 06:47:04;;;;;;;7.35;5.83;;;;;;;24.88;81.37;101330.44;1770162;80;21422;-85
2021/07/27 06:49:32;;;;;;;8.38;5.55;;;;;;;24.98;82.77;101322.63;1776246;79;21099;-85
2021/07/27 06:51:59;;;;;;;8.50;5.20;;;;;;;25.07;81.41;101329.45;1775711;79;21009;-82
2021/07/27 06:54:28;;;;;;;7.90;5.78;;;;;;;25.16;84.57;101324.79;1719725;79;21020;-84
2021/07/27 06:56:58;;;;;;;11.10;5.40;;;;;;;25.26;83.09;101326.61;1774789;79;21100;-84
2021/07/27 06:59:26;;;;;;;13.28;5.85;;;;;;;25.33;79.20;101332.80;1775809;79;21005;-83
2021/07/27 07:01:53;;;;;;;7.12;5.40;;;;;;;25.41;73.89;101329.69;1775708;79;21492;-83
2021/07/27 07:04:20;;;;;;;8.20;5.80;;;;;;;25.49;80.35;101326.86;1744346;79;21048;-86
2021/07/27 07:06:47;;;;;;;9.55;6.17;;;;;;;25.58;78.74;101323.53;1769236;78;21061;-85
2021/07/27 07:09:14;;;;;;;8.58;6.90;;;;;;;25.64;77.22;101323.55;1766363;78;21120;-86
2021/07/27 07:11:42;;;;;;;7.03;6.30;;;;;;;25.72;68.70;101319.90;1746110;79;20938;-86
2021/07/27 07:14:09;;;;;;;8.38;5.50;;;;;;;25.82;76.62;101319.02;1797696;78;21551;-86
2021/07/27 07:16:36;;;;;;;10.03;6.03;;;;;;;25.93;80.57;101317.61;1776870;79;20946;-84
2021/07/27 07:19:03;;;;;;;8.55;5.53;;;;;;;26.04;72.23;101322.06;1775989;79;21107;-83
2021/07/27 07:21:30;;;;;;;7.03;5.35;;;;;;;26.15;75.96;101316.16;1797284;79;21071;-84
2021/07/27 07:23:57;;;;;;;12.55;6.40;;;;;;;26.26;77.47;101314.23;1797670;79;20989;-85
2021/07/27 07:26:24;;;;;;;7.65;5.62;;;;;;;26.39;79.49;101315.27;1775718;79;21029;-84
2021/07/27 07:28:51;;;;;;;5.72;5.20;;;;;;;26.51;73.02;101315.48;1775909;79;20993;-85
2021/07/27 07:31:19;;;;;;;7.15;5.30;;;;;;;26.64;69.71;101317.33;1775712;79;21029;-85
2021/07/27 07:33:46;;;;;;;7.35;5.40;;;;;;;26.74;68.50;101314.55;1797671;78;21068;-82
2021/07/27 07:36:15;;;;;;;8.33;5.37;;;;;;;26.84;71.27;101316.83;1797231;78;21596;-89
2021/07/27 07:38:43;;;;;;;7.05;6.12;;;;;;;26.95;71.40;101317.23;1775638;79;20989;-85
2021/07/27 07:41:12;;;;;;;11.10;5.97;;;;;;;27.04;72.28;101322.14;1797273;79;21073;-87
2021/07/27 07:43:40;;;;;;;10.82;6.37;;;;;;;27.14;66.04;101319.56;1771549;79;20985;-84
2021/07/27 07:46:08;;;;;;;16.42;6.50;;;;;;;27.25;60.61;101317.59;1798379;78;21086;-85
2021/07/27 07:48:34;;;;;;;19.15;7.03;;;;;;;27.35;61.97;101320.66;1798821;77;21049;-84
2021/07/27 07:51:02;;;;;;;19.65;7.65;;;;;;;27.48;63.76;101321.14;1775751;79;21499;-86
2021/07/27 07:53:32;;;;;;;13.10;6.50;;;;;;;27.60;59.77;101326.65;1789113;77;21012;-85
2021/07/27 07:55:59;;;;;;;11.83;5.85;;;;;;;27.69;54.67;101317.36;1800389;78;21103;-85
2021/07/27 07:58:26;;;;;;;8.13;5.53;;;;;;;27.75;53.67;101315.69;1806271;78;21575;-86
2021/07/27 08:00:55;;;;;;;17.70;6.58;;;;;;;27.86;54.32;101315.53;1775882;78;20922;-87
2021/07/27 08:03:22;;;;;;;10.65;6.40;;;;;;;27.97;51.40;101314.86;1797885;78;22726;-86
2021/07/27 08:06:06;;;;;;;11.10;6.10;;;;;;;28.08;54.50;101319.27;1745069;79;21063;-85
2021/07/27 08:08:39;;;;;;;9.08;6.20;;;;;;;28.18;52.57;101321.77;1773486;79;21006;-86
2021/07/27 08:11:10;;;;;;;10.08;5.62;;;;;;;28.33;55.69;101313.41;1770884;80;21059;-84
2021/07/27 08:13:39;;;;;;;11.30;5.87;;;;;;;28.47;55.85;101309.31;1774955;79;21091;-83
2021/07/27 08:16:10;;;;;;;11.38;5.50;;;;;;;28.61;56.23;101316.20;1745606;80;21532;-85
2021/07/27 08:18:39;;;;;;;9.60;6.33;;;;;;;28.75;51.62;101314.76;1776861;79;20981;-84
2021/07/27 08:21:06;;;;;;;11.10;6.83;;;;;;;28.90;53.55;101312.55;1787909;78;21587;-86
2021/07/27 08:23:33;;;;;;;10.80;6.60;;;;;;;29.06;55.90;101311.67;1789578;79;21129;-85
2021/07/27 08:26:02;;;;;;;7.45;6.67;;;;;;;29.18;51.81;101309.91;1789871;78;21016;-84
2021/07/27 08:28:29;;;;;;;11.03;7.65;;;;;;;29.27;48.52;101312.59;1775887;79;20953;-84
2021/07/27 08:30:57;;;;;;;13.30;6.97;;;;;;;29.32;48.41;101311.95;1758531;79;21002;-85
2021/07/27 08:33:24;;;;;;;8.15;7.10;;;;;;;29.37;48.69;101313.44;1802222;79;20939;-85
2021/07/27 08:35:52;;;;;;;15.28;7.95;;;;;;;29.44;47.71;101308.00;1800054;79;21756;-86
2021/07/27 08:38:19;;;;;;;10.55;7.72;;;;;;;29.44;45.35;101308.00;1771146;79;21069;-87
2021/07/27 08:40:49;;;;;;;11.35;7.15;;;;;;;29.42;46.38;101313.57;1800096;79;20983;-85
2021/07/27 08:43:17;;;;;;;8.38;7.40;;;;;;;29.48;46.95;101309.17;1771765;79;21014;-84
2021/07/27 08:45:45;;;;;;;13.38;8.13;;;;;;;29.60;48.22;101305.20;1804138;78;21113;-85
2021/07/27 08:48:17;;;;;;;24.98;9.30;;;;;;;29.71;47.64;101310.33;1793836;79;21169;-83
2021/07/27 08:50:45;;;;;;;18.60;8.38;;;;;;;29.79;44.02;101315.37;1796325;79;21034;-84
2021/07/27 08:53:12;;;;;;;13.48;7.17;;;;;;;29.79;44.50;101310.01;1797272;78;21024;-84
2021/07/27 08:55:42;;;;;;;16.95;7.33;;;;;;;29.81;45.75;101310.61;1727767;82;21071;-83
2021/07/27 08:58:09;;;;;;;18.10;7.72;;;;;;;29.93;46.47;101307.16;1738230;81;21109;-83
2021/07/27 09:00:38;;;;;;;11.85;7.37;;;;;;;30.04;44.36;101309.08;1732618;82;21130;-83
2021/07/27 09:03:18;;;;;;;9.03;6.40;;;;;;;30.12;44.80;101303.92;1719296;81;21066;-85
2021/07/27 09:05:46;;;;;;;13.55;6.37;;;;;;;30.23;46.94;101300.42;1746150;80;21036;-84
2021/07/27 09:08:19;;;;;;;12.20;6.62;;;;;;;30.37;47.08;101299.69;1704073;79;21075;-88
2021/07/27 09:10:44;;;;;;;9.83;6.43;;;;;;;30.48;45.56;101301.59;1743434;80;20999;-83
2021/07/27 09:13:15;;;;;;;12.47;6.75;;;;;;;30.58;45.98;101303.72;1744794;80;21149;-83
2021/07/27 09:15:46;;;;;;;12.03;5.72;;;;;;;30.68;45.04;101299.94;1775325;79;21000;-85
2021/07/27 09:18:16;;;;;;;9.50;6.40;;;;;;;30.78;46.60;101289.09;1775519;79;21054;-83
2021/07/27 09:20:49;;;;;;;11.18;5.80;;;;;;;30.83;44.31;101290.03;1752493;79;20968;-85
2021/07/27 09:23:20;;;;;;;12.00;6.15;;;;;;;30.88;44.92;101283.16;1781410;79;20995;-84
2021/07/27 09:25:51;;;;;;;8.10;6.00;;;;;;;30.97;43.09;101286.58;1775986;79;21072;-85
2021/07/27 09:28:20;;;;;;;11.90;5.60;;;;;;;31.01;42.75;101289.61;1775188;79;21091;-84
2021/07/27 09:30:49;;;;;;;13.30;6.15;;;;;;;31.05;42.89;101282.69;1768803;78;21492;-84
2021/07/27 09:33:17;;;;;;;6.83;5.92;;;;;;;31.09;44.13;101283.90;1807277;78;20945;-84
2021/07/27 09:35:46;;;;;;;8.08;5.30;;;;;;;31.13;41.88;101281.55;1802689;78;21032;-83
2021/07/27 09:38:18;;;;;;;12.18;5.62;;;;;;;31.19;41.54;101279.79;1807359;78;21132;-84
2021/07/27 09:40:56;;;;;;;10.03;5.17;;;;;;;31.26;42.19;101277.23;1807248;78;21068;-84
2021/07/27 09:43:26;;;;;;;11.38;5.83;;;;;;;31.35;42.18;101278.20;1768807;79;21052;-83
2021/07/27 09:46:00;;;;;;;9.55;5.65;;;;;;;31.42;43.20;101281.06;1768875;78;21551;-83
2021/07/27 09:48:27;;;;;;;11.50;6.22;;;;;;;31.50;42.33;101273.66;1802558;78;21072;-86
2021/07/27 09:50:56;;;;;;;10.98;5.87;;;;;;;31.55;42.63;101275.09;1772899;77;21197;-84
2021/07/27 09:53:24;;;;;;;9.20;6.10;;;;;;;31.62;44.92;101270.38;1786048;78;21531;-85
2021/07/27 09:55:51;;;;;;;7.62;6.10;;;;;;;31.71;44.04;101269.52;1796032;78;21705;-84
2021/07/27 09:58:19;;;;;;;11.10;5.78;;;;;;;31.80;41.95;101264.03;1807287;78;21049;-86
2021/07/27 10:01:03;;;;;;;10.35;5.70;;;;;;;31.86;41.29;101264.40;1769492;79;21005;-83
2021/07/27 10:03:34;;;;;;;7.97;6.22;;;;;;;31.98;42.99;101260.80;1760358;79;21887;-86
2021/07/27 10:06:03;;;;;;;13.20;5.75;;;;;;;32.08;41.71;101262.33;1749628;79;21257;-84
2021/07/27 10:08:37;;;;;;;7.83;5.28;;;;;;;32.15;39.41;101271.60;1765317;78;21662;-84
2021/07/27 10:11:12;;;;;;;14.13;5.30;;;;;;;32.21;40.36;101262.53;1787176;77;21002;-85
2021/07/27 10:13:48;;;;;;;14.70;4.85;;;;;;;32.27;41.23;101258.88;1799215;77;21056;-84
2021/07/27 10:16:25;;;;;;;5.70;5.12;;;;;;;32.30;41.55;101257.56;1777132;79;21175;-87
2021/07/27 10:18:53;;;;;;;7.40;5.65;;;;;;;32.33;41.30;101257.89;1745886;80;21068;-85
2021/07/27 10:21:24;;;;;;;8.78;5.30;;;;;;;32.37;40.76;101256.35;1743609;80;21029;-85
2021/07/27 10:24:12;;;;;;;9.38;5.35;;;;;;;32.41;38.01;101256.12;1775379;79;21017;-84
2021/07/27 10:26:40;;;;;;;8.05;5.55;;;;;;;32.45;38.14;101248.91;1742527;80;21610;-84
2021/07/27 10:29:07;;;;;;;7.45;4.67;;;;;;;32.41;38.46;101248.05;1775271;79;21626;-85
2021/07/27 10:31:40;;;;;;;8.08;4.75;;;;;;;32.41;41.26;101246.70;1770843;79;21084;-86
2021/07/27 10:34:10;;;;;;;7.90;5.10;;;;;;;32.45;39.53;101247.02;1775428;79;21017;-85
2021/07/27 10:36:43;;;;;;;6.72;4.55;;;;;;;32.50;39.67;101244.42;1775744;79;21049;-84
2021/07/27 10:39:19;;;;;;;8.70;4.70;;;;;;;32.54;35.50;101245.54;1775406;79;21001;-84
2021/07/27 10:41:49;;;;;;;7.20;4.60;;;;;;;32.50;36.81;101240.89;1775295;79;21168;-84
2021/07/27 10:44:24;;;;;;;10.68;5.00;;;;;;;32.50;37.65;101246.28;1743523;80;21103;-83
2021/07/27 10:46:50;;;;;;;9.93;4.75;;;;;;;32.60;38.34;101238.34;1797108;79;21066;-84
2021/07/27 10:49:25;;;;;;;8.50;4.80;;;;;;;32.71;36.48;101237.95;1800675;79;21022;-83
2021/07/27 10:51:55;;;;;;;8.98;4.58;;;;;;;32.80;36.40;101232.98;1745371;79;21050;-84
2021/07/27 10:54:28;;;;;;;10.50;4.47;;;;;;;32.87;37.47;101230.91;1800694;79;21149;-86
2021/07/27 10:57:05;;;;;;;8.80;4.45;;;;;;;32.90;37.21;101233.09;1703141;82;21137;-84
2021/07/27 10:59:35;;;;;;;9.40;4.40;;;;;;;32.95;39.40;101230.48;1732596;82;32448;-84
2021/07/27 11:02:11;;;;;;;5.65;4.00;;;;;;;33.06;38.21;101224.67;1769204;79;21019;-84
2021/07/27 11:04:39;;;;;;;9.90;4.25;;;;;;;33.16;37.66;101221.27;1795506;79;21612;-85
2021/07/27 11:07:11;;;;;;;5.62;4.33;;;;;;;33.21;38.56;101218.64;1800781;79;22404;-86
2021/07/27 11:09:55;;;;;;;8.98;4.30;;;;;;;33.30;37.31;101215.75;1768810;79;21019;-83
2021/07/27 11:12:41;;;;;;;5.67;4.40;;;;;;;33.35;38.04;101209.62;1769308;79;21996;-83
2021/07/27 11:15:22;;;;;;;5.10;4.03;;;;;;;33.35;38.04;101209.62;1800870;79;21587;-83
2021/07/27 11:17:53;;;;;;;8.45;3.90;;;;;;;33.39;37.89;101204.01;1800666;79;21006;-85
2021/07/27 11:20:29;;;;;;;8.63;4.03;;;;;;;33.40;38.41;101208.34;1785347;79;21191;-87
2021/07/27 11:22:59;;;;;;;6.67;4.12;;;;;;;33.45;38.01;101206.23;1751725;81;21543;-83
2021/07/27 11:25:28;;;;;;;11.73;4.75;;;;;;;33.58;38.88;101206.32;1727706;81;21083;-85
2021/07/27 11:27:56;;;;;;;6.65;4.42;;;;;;;33.64;36.52;101201.27;1755862;81;20977;-84
2021/07/27 11:30:35;;;;;;;5.33;4.20;;;;;;;33.70;35.38;101207.50;1755111;81;21679;-83
2021/07/27 11:33:12;;;;;;;7.30;4.37;;;;;;;33.70;35.38;101207.50;1715258;81;22021;-84
2021/07/27 11:35:48;;;;;;;7.92;4.25;;;;;;;33.69;33.43;101202.65;1699018;82;21615;-82
2021/07/27 11:38:25;;;;;;;4.80;4.40;;;;;;;33.74;35.60;101205.38;1722292;82;21114;-84
2021/07/27 11:41:12;;;;;;;6.72;4.30;;;;;;;33.80;34.00;101201.68;1722963;82;21010;-85
2021/07/27 11:43:43;;;;;;;7.28;4.17;;;;;;;33.83;34.62;101211.14;1756318;80;21003;-83
2021/07/27 11:46:19;;;;;;;8.75;4.20;;;;;;;33.88;34.30;101198.25;1737029;77;21074;-85
2021/07/27 11:48:54;;;;;;;7.58;4.03;;;;;;;33.91;34.51;101198.55;1750518;79;21001;-85
2021/07/27 11:51:35;;;;;;;4.62;4.20;;;;;;;34.08;32.14;101192.18;1807005;78;21142;-84
2021/07/27 11:54:02;;;;;;;;;;;;;;;34.08;32.14;101192.18;1809531;78;21060;-83
2021/07/27 11:56:29;;;;;;;5.58;4.42;;;;;;;34.11;32.78;101197.05;1750675;78;20154;-84
2021/07/27 11:59:02;;;;;;;4.50;4.10;;;;;;;34.15;34.59;101191.41;1807250;78;21829;-84
2021/07/27 12:01:42;;;;;;;5.45;4.00;;;;;;;34.16;32.46;101186.81;1806967;78;20997;-84
2021/07/27 12:04:10;;;;;;;5.62;3.50;;;;;;;34.20;35.27;101184.68;1806992;78;21056;-84
2021/07/27 12:06:53;;;;;;;7.60;3.80;;;;;;;34.20;35.27;101184.68;1807413;78;21005;-85
2021/07/27 12:09:24;;;;;;;7.10;4.03;;;;;;;34.26;35.07;101181.48;1764453;79;21001;-85
2021/07/27 12:11:51;;;;;;;5.03;3.92;;;;;;;34.27;34.49;101179.86;1761174;79;21201;-84
2021/07/27 12:14:20;;;;;;;6.60;4.22;;;;;;;34.26;33.83;101178.22;1769305;79;21490;-85
2021/07/27 12:16:48;;;;;;;9.48;4.33;;;;;;;34.27;34.91;101176.35;1786207;79;21097;-85
2021/07/27 12:19:15;;;;;;;5.83;4.05;;;;;;;34.31;34.47;101177.99;1808494;79;21094;-85
2021/07/27 12:21:42;;;;;;;4.97;4.00;;;;;;;34.32;34.52;101174.22;1740098;81;21026;-84
2021/07/27 12:24:09;;;;;;;6.47;4.12;;;;;;;34.34;33.62;101178.80;1754514;81;21981;-84
2021/07/27 12:26:38;;;;;;;4.10;3.80;;;;;;;34.32;32.37;101174.22;1712126;82;21638;-86
2021/07/27 12:29:05;;;;;;;4.42;3.85;;;;;;;34.32;32.37;101174.22;1754636;81;21536;-85
2021/07/27 12:31:32;;;;;;;5.28;4.20;;;;;;;34.29;32.95;101170.16;1726779;81;21018;-85
2021/07/27 12:33:59;;;;;;;5.45;3.60;;;;;;;34.31;33.08;101169.89;1751339;81;21592;-84
2021/07/27 12:36:27;;;;;;;6.67;4.47;;;;;;;34.39;31.70;101170.22;1712213;82;22015;-84
2021/07/27 12:38:54;;;;;;;8.25;4.00;;;;;;;34.44;30.20;101161.33;1741674;82;20988;-85
2021/07/27 12:41:21;;;;;;;8.50;3.92;;;;;;;34.50;33.18;101159.47;1741935;81;21058;-86
2021/07/27 12:43:48;;;;;;;8.25;4.03;;;;;;;34.57;32.97;101164.09;1741953;82;21015;-86
2021/07/27 12:46:25;;;;;;;;;;;;;;;;;;;;;
2021/07/27 12:48:49;;;;;;;6.92;4.22;;;;;;;34.68;29.77;101156.83;1654963;86;21674;-89